Time;durP1;ratioP1;P1;durP2;ratioP2;P2;SDS_P1;SDS_P2;PMS_P1;PMS_P2;Temp;Humidity;BMP_temperature;BMP_pressure;BME280_temperature;BME280_humidity;BME280_pressure;Samples;Min_cycle;Max_cycle;Signal;HPM_P1;HPM_P2
2024/04/17 00:01:39;;;;;;;12.63;1.83;;;;;;;5.26;100.00;100895.09;5372193;26;20281;-75
2024/04/17 00:04:05;;;;;;;5.83;1.40;;;;;;;5.56;100.00;100900.81;5397444;26;20261;-75
2024/04/17 00:06:31;;;;;;;9.33;2.10;;;;;;;6.02;100.00;100981.09;5370136;26;20250;-76
2024/04/17 00:08:56;;;;;;;6.50;1.50;;;;;;;5.45;100.00;100896.63;5370452;26;20779;-76
2024/04/17 00:11:22;;;;;;;7.87;1.50;;;;;;;5.74;100.00;100975.19;5372825;26;20292;-76
2024/04/17 00:13:47;;;;;;;9.37;1.60;;;;;;;5.56;100.00;100891.00;5365262;26;20234;-75
2024/04/17 00:16:13;;;;;;;7.17;1.60;;;;;;;5.89;100.00;100941.59;5369414;26;20250;-76
2024/04/17 00:18:39;;;;;;;6.27;1.60;;;;;;;5.53;100.00;100914.44;5400040;26;20342;-75
2024/04/17 00:21:04;;;;;;;7.70;1.73;;;;;;;6.02;100.00;100963.28;5371332;26;20848;-76
2024/04/17 00:23:29;;;;;;;11.90;1.80;;;;;;;5.62;100.00;100900.16;5370629;26;20837;-76
2024/04/17 00:25:55;;;;;;;12.40;1.77;;;;;;;5.38;100.00;100840.59;5380082;26;20238;-76
2024/04/17 00:28:21;;;;;;;8.13;1.83;;;;;;;5.29;100.00;100841.56;5376359;26;20281;-76
2024/04/17 00:30:48;;;;;;;7.37;1.50;;;;;;;5.56;100.00;100874.22;5373666;26;20242;-76
2024/04/17 00:33:14;;;;;;;19.00;2.40;;;;;;;5.20;100.00;100831.91;5370948;26;20362;-75
2024/04/17 00:35:39;;;;;;;10.10;1.90;;;;;;;5.19;100.00;100862.19;5395678;26;20484;-76
2024/04/17 00:38:05;;;;;;;11.10;2.23;;;;;;;5.82;100.00;100956.56;5369270;26;20242;-76
2024/04/17 00:40:35;;;;;;;7.00;1.70;;;;;;;5.18;100.00;100872.00;5369964;26;20612;-76
2024/04/17 00:43:01;;;;;;;11.30;1.70;;;;;;;5.14;100.00;100886.59;5394349;26;20714;-75
2024/04/17 00:45:33;;;;;;;6.10;1.43;;;;;;;4.93;100.00;100880.88;5394625;26;20576;-76
2024/04/17 00:47:59;;;;;;;8.53;1.70;;;;;;;4.93;100.00;100870.25;5362910;26;21093;-75
2024/04/17 00:50:25;;;;;;;9.37;1.93;;;;;;;5.44;100.00;100889.66;5369249;26;20607;-75
2024/04/17 00:52:51;;;;;;;9.43;1.70;;;;;;;5.41;100.00;100869.53;5368093;26;20480;-76
2024/04/17 00:55:17;;;;;;;10.67;2.33;;;;;;;4.96;100.00;100825.56;5369975;26;21022;-76
2024/04/17 00:57:44;;;;;;;10.77;2.17;;;;;;;5.26;100.00;100846.41;5403079;26;20579;-76
2024/04/17 01:00:10;;;;;;;10.50;1.80;;;;;;;4.87;100.00;100829.19;5366601;26;20246;-76
2024/04/17 01:02:35;;;;;;;8.23;1.60;;;;;;;5.72;100.00;100966.53;5371137;26;20528;-75
2024/04/17 01:05:01;;;;;;;7.30;1.60;;;;;;;5.21;100.00;100857.53;5362344;26;20492;-75
2024/04/17 01:07:26;;;;;;;9.47;1.63;;;;;;;4.85;100.00;100793.97;5368897;26;20285;-76
2024/04/17 01:09:54;;;;;;;6.57;1.87;;;;;;;5.49;100.00;100905.13;5371003;26;20284;-76
2024/04/17 01:12:19;;;;;;;14.07;2.03;;;;;;;5.43;100.00;100891.47;5366059;26;20266;-75
2024/04/17 01:14:45;;;;;;;6.37;1.80;;;;;;;5.30;100.00;100877.81;5362951;26;20487;-76
2024/04/17 01:17:10;;;;;;;8.63;2.33;;;;;;;5.29;100.00;100881.47;5367504;26;21299;-76
2024/04/17 01:19:36;;;;;;;9.50;2.30;;;;;;;5.36;100.00;100874.50;5369054;26;20372;-75
2024/04/17 01:22:02;;;;;;;9.27;2.07;;;;;;;5.93;100.00;100940.31;5366337;26;20289;-76
2024/04/17 01:24:27;;;;;;;9.10;2.33;;;;;;;5.27;100.00;100856.06;5363784;26;20554;-76
2024/04/17 01:26:53;;;;;;;7.93;2.13;;;;;;;5.78;100.00;100941.91;5368080;26;20234;-76
2024/04/17 01:29:18;;;;;;;9.73;1.77;;;;;;;5.63;100.00;100947.88;5367188;26;20351;-75
2024/04/17 01:31:44;;;;;;;11.83;2.10;;;;;;;5.53;100.00;100893.16;5364525;26;20246;-76
2024/04/17 01:34:09;;;;;;;9.67;1.83;;;;;;;5.00;100.00;100831.38;5394695;26;20647;-76
2024/04/17 01:36:34;;;;;;;9.67;2.70;;;;;;;5.16;100.00;100865.16;5365790;26;20250;-76
2024/04/17 01:39:00;;;;;;;13.20;2.27;;;;;;;5.65;100.00;100945.88;5389867;26;21436;-75
2024/04/17 01:41:25;;;;;;;7.63;1.80;;;;;;;5.60;100.00;100931.41;5364866;26;20238;-75
2024/04/17 01:43:51;;;;;;;9.83;1.37;;;;;;;5.75;100.00;100945.72;5364944;26;20280;-76
2024/04/17 01:46:16;;;;;;;8.23;1.83;;;;;;;5.18;100.00;100911.03;5363073;26;20242;-76
2024/04/17 01:48:41;;;;;;;7.53;1.80;;;;;;;5.15;100.00;100871.47;5361823;26;20269;-76
2024/04/17 01:51:07;;;;;;;7.80;1.87;;;;;;;5.03;100.00;100836.38;5362276;26;20246;-76
2024/04/17 01:53:32;;;;;;;7.10;1.80;;;;;;;5.77;100.00;100916.31;5362366;26;20243;-76
2024/04/17 01:55:58;;;;;;;8.47;1.93;;;;;;;5.37;100.00;100846.91;5364440;26;20242;-76
2024/04/17 01:58:25;;;;;;;11.37;2.37;;;;;;;5.36;100.00;100847.09;5363383;26;20245;-75
2024/04/17 02:00:50;;;;;;;6.00;1.80;;;;;;;5.60;100.00;100926.91;5364820;26;20250;-76
2024/04/17 02:03:15;;;;;;;8.90;2.03;;;;;;;5.63;100.00;100934.56;5362057;26;20531;-76
2024/04/17 02:05:41;;;;;;;13.00;2.53;;;;;;;4.74;100.00;100815.53;5365655;26;21163;-76
2024/04/17 02:08:06;;;;;;;8.50;1.87;;;;;;;4.91;100.00;100813.75;5364016;26;20630;-76
2024/04/17 02:10:32;;;;;;;8.90;2.63;;;;;;;5.20;100.00;100851.34;5371892;26;20333;-76
2024/04/17 02:12:57;;;;;;;9.10;2.43;;;;;;;5.82;100.00;100957.41;5361113;26;20243;-76
2024/04/17 02:15:23;;;;;;;7.73;2.13;;;;;;;5.75;100.00;100944.91;5366895;26;20257;-75
2024/04/17 02:17:48;;;;;;;7.57;1.60;;;;;;;5.26;100.00;100849.06;5368375;26;20327;-76
2024/04/17 02:20:13;;;;;;;7.47;1.73;;;;;;;5.92;100.00;100967.88;5367503;26;20275;-76
2024/04/17 02:22:39;;;;;;;11.17;2.23;;;;;;;5.69;100.00;100940.25;5368650;26;20352;-76
2024/04/17 02:25:04;;;;;;;8.53;2.07;;;;;;;5.51;100.00;100889.81;5366601;26;20678;-76
2024/04/17 02:27:30;;;;;;;8.03;2.00;;;;;;;6.01;100.00;100961.59;5369613;26;21416;-75
2024/04/17 02:29:56;;;;;;;14.57;2.47;;;;;;;5.34;100.00;100857.03;5363860;26;20246;-75
2024/04/17 02:32:21;;;;;;;9.70;2.00;;;;;;;5.54;100.00;100932.06;5370370;26;20242;-75
2024/04/17 02:34:47;;;;;;;8.87;2.00;;;;;;;5.83;100.00;100952.91;5369684;26;21320;-75
2024/04/17 02:37:12;;;;;;;8.17;1.60;;;;;;;5.34;100.00;100860.53;5365828;26;20235;-75
2024/04/17 02:39:38;;;;;;;7.63;2.17;;;;;;;5.34;100.00;100849.06;5370045;26;20292;-75
2024/04/17 02:42:03;;;;;;;7.00;1.67;;;;;;;5.47;100.00;100875.19;5370016;26;20282;-75
2024/04/17 02:44:29;;;;;;;5.43;1.67;;;;;;;6.17;100.00;100952.78;5367284;26;20316;-76
2024/04/17 02:46:56;;;;;;;7.50;1.80;;;;;;;5.62;100.00;100869.06;5364473;26;20246;-76
2024/04/17 02:49:22;;;;;;;6.43;1.63;;;;;;;6.18;100.00;100953.59;5377369;26;20238;-75
2024/04/17 02:51:50;;;;;;;6.40;1.70;;;;;;;6.15;100.00;100956.59;5368770;26;20859;-76
2024/04/17 02:54:15;;;;;;;8.27;1.70;;;;;;;5.69;100.00;100871.88;5365896;26;20379;-75
2024/04/17 02:56:40;;;;;;;9.10;1.70;;;;;;;5.74;100.00;100853.59;5370002;26;20532;-76
2024/04/17 02:59:06;;;;;;;8.20;2.00;;;;;;;5.73;100.00;100857.25;5366435;26;20254;-76
2024/04/17 03:01:31;;;;;;;7.93;1.83;;;;;;;5.40;100.00;100796.03;5371164;26;20592;-76
2024/04/17 03:03:57;;;;;;;11.53;1.97;;;;;;;5.56;100.00;100834.31;5394233;26;20292;-75
2024/04/17 03:06:22;;;;;;;6.93;1.63;;;;;;;6.09;100.00;100926.97;5367847;26;20256;-76
2024/04/17 03:08:48;;;;;;;10.23;2.00;;;;;;;5.63;100.00;100861.91;5365078;26;20246;-76
2024/04/17 03:11:13;;;;;;;6.73;1.90;;;;;;;5.44;100.00;100834.63;5368173;26;20268;-76
2024/04/17 03:13:39;;;;;;;7.83;1.90;;;;;;;6.11;100.00;100942.81;5370109;26;20372;-76
2024/04/17 03:16:04;;;;;;;7.60;1.57;;;;;;;5.84;100.00;100858.72;5369834;26;20328;-76
2024/04/17 03:18:30;;;;;;;11.27;1.80;;;;;;;6.75;100.00;100965.00;5375402;26;20290;-76
2024/04/17 03:21:00;;;;;;;6.30;1.70;;;;;;;6.62;100.00;100966.53;5366956;26;20245;-76
2024/04/17 03:23:25;;;;;;;8.83;2.10;;;;;;;6.01;100.00;100822.31;5368403;26;20305;-76
2024/04/17 03:25:58;;;;;;;9.57;1.40;;;;;;;6.82;100.00;100959.81;5364893;26;20477;-76
2024/04/17 03:28:24;;;;;;;8.93;1.50;;;;;;;6.72;100.00;100948.53;5367621;26;20230;-75
2024/04/17 03:30:49;;;;;;;6.30;1.00;;;;;;;6.73;100.00;100924.34;5371590;26;20472;-75
2024/04/17 03:33:15;;;;;;;7.03;1.27;;;;;;;6.95;100.00;100922.78;5372069;26;20242;-76
2024/04/17 03:35:41;;;;;;;7.40;1.50;;;;;;;6.93;100.00;100919.47;5369165;26;20289;-76
2024/04/17 03:38:06;;;;;;;5.80;1.03;;;;;;;6.42;100.00;100820.38;5370450;26;20241;-76
2024/04/17 03:40:32;;;;;;;4.60;1.00;;;;;;;4.90;100.00;100584.34;5398055;26;20517;-76
2024/04/17 03:42:57;;;;;;;7.40;1.40;;;;;;;6.88;100.00;100911.13;5367523;26;20272;-76
2024/04/17 03:45:23;;;;;;;6.20;1.10;;;;;;;6.29;100.00;100836.88;5370814;26;20301;-76
2024/04/17 03:47:48;;;;;;;5.20;1.00;;;;;;;6.17;100.00;100810.78;5370150;26;20238;-76
2024/04/17 03:50:14;;;;;;;8.43;1.37;;;;;;;6.18;100.00;100799.97;5371794;26;20257;-75
2024/04/17 03:52:39;;;;;;;6.13;1.27;;;;;;;6.62;100.00;100865.25;5366472;26;20242;-76
2024/04/17 03:55:05;;;;;;;5.50;1.10;;;;;;;6.75;100.00;100884.22;5369984;26;20254;-76
2024/04/17 03:57:30;;;;;;;5.90;1.10;;;;;;;6.29;100.00;100836.06;5370648;26;20241;-76
2024/04/17 03:59:56;;;;;;;5.40;0.97;;;;;;;6.23;100.00;100828.75;5368781;26;20836;-76
2024/04/17 04:02:21;;;;;;;5.63;1.03;;;;;;;6.97;100.00;100943.94;5397227;26;20351;-76
2024/04/17 04:04:47;;;;;;;5.37;0.97;;;;;;;5.84;100.00;100770.88;5370390;26;20349;-76
2024/04/17 04:07:12;;;;;;;6.97;1.20;;;;;;;6.73;100.00;100932.34;5366552;26;20852;-76
2024/04/17 04:09:38;;;;;;;4.47;1.00;;;;;;;6.56;100.00;100877.44;5371047;26;20250;-76
2024/04/17 04:12:03;;;;;;;5.83;1.30;;;;;;;6.31;100.00;100863.38;5398167;26;20270;-76
2024/04/17 04:14:29;;;;;;;5.17;0.90;;;;;;;6.74;100.00;100926.03;5365164;26;20249;-76
2024/04/17 04:16:54;;;;;;;7.13;1.20;;;;;;;6.51;100.00;100893.94;5370499;26;20942;-76
2024/04/17 04:19:20;;;;;;;4.67;0.97;;;;;;;6.16;100.00;100849.06;5370637;26;20242;-76
2024/04/17 04:21:46;;;;;;;5.40;1.00;;;;;;;6.21;100.00;100890.16;5365373;26;20294;-76
2024/04/17 04:24:11;;;;;;;7.37;0.90;;;;;;;6.77;100.00;100959.53;5396145;26;20700;-76
2024/04/17 04:26:37;;;;;;;6.13;1.00;;;;;;;6.06;100.00;100860.75;5399493;26;20520;-76
2024/04/17 04:29:02;;;;;;;6.50;0.97;;;;;;;6.04;100.00;100865.38;5362276;26;20559;-76
2024/04/17 04:31:28;;;;;;;4.63;0.93;;;;;;;6.62;100.00;100958.53;5367912;26;20266;-76
2024/04/17 04:33:54;;;;;;;5.27;0.80;;;;;;;6.38;100.00;100893.63;5368903;26;20571;-76
2024/04/17 04:36:19;;;;;;;4.33;0.87;;;;;;;6.09;100.00;100857.72;5366648;26;20580;-76
2024/04/17 04:38:45;;;;;;;4.90;0.90;;;;;;;6.71;100.00;100941.53;5364765;26;21180;-76
2024/04/17 04:41:10;;;;;;;5.07;1.00;;;;;;;6.78;100.00;100945.19;5369403;26;20246;-76
2024/04/17 04:43:36;;;;;;;5.10;1.03;;;;;;;6.17;100.00;100888.03;5400142;26;20297;-75
2024/04/17 04:46:01;;;;;;;7.13;0.90;;;;;;;6.71;100.00;100941.53;5361263;26;20300;-76
2024/04/17 04:48:27;;;;;;;6.30;0.90;;;;;;;6.20;100.00;100855.72;5366829;26;20336;-77
2024/04/17 04:50:52;;;;;;;3.80;0.70;;;;;;;6.74;100.00;100942.03;5363107;26;20861;-77
2024/04/17 04:53:18;;;;;;;7.47;1.03;;;;;;;6.35;100.00;100899.31;5390115;26;20646;-76
2024/04/17 04:56:01;;;;;;;4.57;1.33;;;;;;;6.79;100.00;100986.81;5357891;26;20250;-76
2024/04/17 04:58:27;;;;;;;4.57;0.80;;;;;;;6.44;100.00;100919.59;5358376;26;20837;-76
2024/04/17 05:00:52;;;;;;;5.00;1.00;;;;;;;6.01;100.00;100871.06;5362833;26;20480;-76
2024/04/17 05:03:18;;;;;;;5.10;1.10;;;;;;;6.60;100.00;100980.06;5360420;26;21015;-76
2024/04/17 05:05:44;;;;;;;7.27;1.00;;;;;;;6.80;100.00;100983.19;5390759;26;20643;-76
2024/04/17 05:08:09;;;;;;;4.60;0.80;;;;;;;6.29;100.00;100905.31;5365677;26;20774;-76
2024/04/17 05:10:35;;;;;;;4.70;0.90;;;;;;;6.27;100.00;100886.00;5359523;26;21081;-76
2024/04/17 05:13:00;;;;;;;4.93;0.90;;;;;;;6.63;100.00;100938.91;5363337;26;20289;-76
2024/04/17 05:15:26;;;;;;;4.20;0.93;;;;;;;6.27;100.00;100913.47;5361803;26;20854;-76
2024/04/17 05:17:51;;;;;;;4.30;1.00;;;;;;;6.80;100.00;100975.19;5359856;26;20277;-76
2024/04/17 05:20:17;;;;;;;5.40;0.90;;;;;;;6.46;100.00;100912.28;5392998;26;20249;-76
2024/04/17 05:22:42;;;;;;;7.93;1.50;;;;;;;6.57;100.00;100933.25;5362833;26;20246;-76
2024/04/17 05:25:08;;;;;;;6.83;1.13;;;;;;;6.63;100.00;100971.72;5363288;26;20242;-77
2024/04/17 05:27:33;;;;;;;5.70;0.90;;;;;;;6.26;100.00;100937.63;5363816;26;20304;-77
2024/04/17 05:29:58;;;;;;;5.90;0.80;;;;;;;6.20;100.00;100947.13;5360916;26;20289;-76
2024/04/17 05:32:24;;;;;;;5.03;0.87;;;;;;;6.37;100.00;100976.41;5365048;26;20250;-76
2024/04/17 05:34:50;;;;;;;4.40;1.00;;;;;;;6.43;100.00;100997.06;5361199;26;20250;-77
2024/04/17 05:37:15;;;;;;;6.60;1.77;;;;;;;6.65;100.00;101051.50;5369413;26;20283;-76
2024/04/17 05:39:41;;;;;;;6.53;1.00;;;;;;;6.24;100.00;101051.50;5393170;26;20581;-76
2024/04/17 05:42:06;;;;;;;4.40;1.00;;;;;;;6.67;100.00;101094.81;5366415;26;20242;-76
2024/04/17 05:44:32;;;;;;;7.20;1.23;;;;;;;6.81;100.00;101134.13;5363626;26;20339;-76
2024/04/17 05:46:57;;;;;;;5.07;1.03;;;;;;;6.56;100.00;101056.81;5361724;26;20289;-76
2024/04/17 05:49:23;;;;;;;6.60;1.03;;;;;;;7.10;100.00;101165.63;5362326;26;20782;-76
2024/04/17 05:51:49;;;;;;;5.10;1.17;;;;;;;6.47;100.00;101057.81;5360687;26;20265;-76
2024/04/17 05:54:14;;;;;;;7.70;1.60;;;;;;;6.41;100.00;101053.16;5362039;26;20276;-76
2024/04/17 05:56:40;;;;;;;5.10;1.40;;;;;;;6.56;100.00;101083.47;5364568;26;20893;-76
2024/04/17 05:59:05;;;;;;;6.80;1.47;;;;;;;5.98;100.00;101009.84;5362473;26;20278;-77
2024/04/17 06:01:31;;;;;;;5.13;1.00;;;;;;;6.27;100.00;101073.31;5365150;26;20249;-76
2024/04/17 06:03:56;;;;;;;6.00;1.07;;;;;;;6.47;100.00;101073.81;5359933;26;20652;-77
2024/04/17 06:06:22;;;;;;;7.97;1.60;;;;;;;5.51;100.00;100980.28;5365432;26;20254;-77
2024/04/17 06:08:48;;;;;;;8.37;1.10;;;;;;;6.11;100.00;101044.81;5362599;26;20592;-77
2024/04/17 06:11:14;;;;;;;6.63;1.37;;;;;;;6.45;100.00;101081.16;5388932;26;20281;-77
2024/04/17 06:13:40;;;;;;;6.00;1.03;;;;;;;6.81;100.00;101166.13;5365223;26;20526;-77
2024/04/17 06:16:06;;;;;;;5.50;1.30;;;;;;;6.26;100.00;101098.28;5361084;26;20374;-77
2024/04/17 06:18:32;;;;;;;6.70;1.10;;;;;;;6.78;100.00;101177.97;5367255;26;20484;-77
2024/04/17 06:20:57;;;;;;;5.13;0.93;;;;;;;6.70;100.00;101127.28;5360974;26;20519;-77
2024/04/17 06:23:22;;;;;;;4.00;0.80;;;;;;;6.37;100.00;101101.63;5359779;26;20384;-77
2024/04/17 06:25:48;;;;;;;5.00;1.00;;;;;;;6.18;100.00;101057.47;5366332;26;20242;-77
2024/04/17 06:28:14;;;;;;;5.20;1.00;;;;;;;6.02;100.00;101037.81;5394713;26;20246;-77
2024/04/17 06:30:40;;;;;;;6.47;1.17;;;;;;;6.32;100.00;101096.78;5364984;26;20719;-77
2024/04/17 06:33:05;;;;;;;5.20;1.20;;;;;;;6.26;100.00;101116.09;5388213;26;20591;-77
2024/04/17 06:35:32;;;;;;;5.43;1.00;;;;;;;6.10;100.00;101074.28;5363831;26;20282;-77
2024/04/17 06:37:58;;;;;;;5.37;0.90;;;;;;;6.51;100.00;101171.09;5362829;26;20679;-77
2024/04/17 06:40:23;;;;;;;5.30;0.80;;;;;;;6.44;100.00;101138.09;5361378;26;20567;-77
2024/04/17 06:42:49;;;;;;;6.67;1.03;;;;;;;6.34;100.00;101186.22;5360691;26;20348;-77
2024/04/17 06:45:14;;;;;;;4.97;1.20;;;;;;;5.82;100.00;101154.38;5390806;26;20253;-77
2024/04/17 06:47:40;;;;;;;4.10;0.80;;;;;;;6.02;100.00;101132.88;5359689;26;20572;-76
2024/04/17 06:50:06;;;;;;;5.57;1.03;;;;;;;5.93;100.00;101118.69;5361473;26;20773;-77
2024/04/17 06:52:31;;;;;;;5.60;1.10;;;;;;;6.04;100.00;101118.38;5365389;26;20575;-77
2024/04/17 06:54:56;;;;;;;5.30;1.03;;;;;;;6.67;100.00;101201.44;5385533;26;20250;-77
2024/04/17 06:57:22;;;;;;;4.90;1.17;;;;;;;6.21;100.00;101127.22;5359121;26;21010;-77
2024/04/17 06:59:47;;;;;;;11.80;1.30;;;;;;;6.35;100.00;101128.44;5362802;26;20359;-77
2024/04/17 07:02:13;;;;;;;7.70;1.57;;;;;;;6.52;100.00;101163.94;5360932;26;20656;-77
2024/04/17 07:04:38;;;;;;;5.40;1.30;;;;;;;6.42;100.00;101179.22;5358784;26;20305;-76
2024/04/17 07:07:04;;;;;;;5.50;1.00;;;;;;;6.87;100.00;101218.78;5361762;26;20264;-77
2024/04/17 07:09:30;;;;;;;4.60;0.90;;;;;;;6.17;100.00;101167.69;5363385;26;20246;-77
2024/04/17 07:11:55;;;;;;;7.27;1.17;;;;;;;6.07;100.00;101162.47;5363885;26;20250;-77
2024/04/17 07:14:21;;;;;;;5.50;0.90;;;;;;;6.87;100.00;101304.13;5360702;26;20921;-77
2024/04/17 07:16:46;;;;;;;4.70;1.00;;;;;;;6.11;100.00;101175.31;5364466;26;20246;-77
2024/04/17 07:19:11;;;;;;;4.17;0.80;;;;;;;6.02;100.00;101122.22;5363108;26;20305;-77
2024/04/17 07:21:37;;;;;;;4.63;0.73;;;;;;;6.16;100.00;101150.84;5360514;26;20546;-77
2024/04/17 07:24:03;;;;;;;5.03;0.80;;;;;;;6.39;100.00;101137.75;5361677;26;20277;-77
2024/04/17 07:26:28;;;;;;;4.30;1.10;;;;;;;6.37;100.00;101129.13;5360089;26;20261;-77
2024/04/17 07:28:54;;;;;;;4.20;0.70;;;;;;;6.13;100.00;101079.28;5363587;26;21597;-76
2024/04/17 07:31:19;;;;;;;4.70;0.70;;;;;;;6.36;100.00;101100.78;5392952;26;20238;-77
2024/04/17 07:33:47;;;;;;;4.13;0.70;;;;;;;5.50;100.00;101000.75;5362478;26;20280;-77
2024/04/17 07:36:13;;;;;;;4.27;0.67;;;;;;;6.28;100.00;101108.78;5356938;26;20238;-77
2024/04/17 07:38:38;;;;;;;3.43;0.60;;;;;;;6.81;100.00;101146.63;5357339;26;20522;-77
2024/04/17 07:41:05;;;;;;;4.10;0.60;;;;;;;6.80;100.00;101137.81;5356612;26;20246;-77
2024/04/17 07:43:32;;;;;;;3.70;0.60;;;;;;;6.96;100.00;101172.47;5364332;26;20305;-77
2024/04/17 07:46:01;;;;;;;3.57;0.60;;;;;;;6.19;100.00;101107.94;5361555;26;21050;-77
2024/04/17 07:48:27;;;;;;;4.67;0.60;;;;;;;7.37;100.00;101239.13;5391661;26;21078;-77
2024/04/17 07:50:53;;;;;;;4.20;0.70;;;;;;;7.35;100.00;101233.16;5360670;26;20483;-77
2024/04/17 07:53:18;;;;;;;3.47;0.60;;;;;;;6.91;100.00;101152.63;5367303;26;20480;-77
2024/04/17 07:55:44;;;;;;;3.60;0.70;;;;;;;6.83;100.00;101145.47;5369554;26;20257;-76
2024/04/17 07:58:10;;;;;;;4.57;0.70;;;;;;;7.56;100.00;101253.97;5362058;26;20288;-76
2024/04/17 08:00:35;;;;;;;3.80;0.60;;;;;;;6.86;100.00;101141.66;5361437;26;20568;-76
2024/04/17 08:03:02;;;;;;;9.80;0.90;;;;;;;6.54;100.00;101101.47;5364337;26;20253;-76
2024/04/17 08:05:27;;;;;;;4.20;0.70;;;;;;;6.95;100.00;101193.97;5359772;26;20539;-76
2024/04/17 08:07:53;;;;;;;3.93;0.67;;;;;;;6.36;100.00;101098.13;5362859;26;20939;-76
2024/04/17 08:10:19;;;;;;;5.27;0.77;;;;;;;7.01;100.00;101178.13;5368336;26;20292;-76
2024/04/17 08:12:47;;;;;;;5.23;0.60;;;;;;;7.17;100.00;101208.47;5372041;26;20480;-77
2024/04/17 08:15:12;;;;;;;4.13;0.93;;;;;;;7.22;100.00;101163.44;5379356;26;20289;-76
2024/04/17 08:17:39;;;;;;;4.07;0.73;;;;;;;7.62;100.00;101223.94;5376421;26;20476;-77
2024/04/17 08:20:05;;;;;;;4.20;0.67;;;;;;;6.86;100.00;101107.81;5370301;26;20234;-76
2024/04/17 08:22:30;;;;;;;4.23;0.63;;;;;;;7.10;100.00;101109.59;5364150;26;20480;-76
2024/04/17 08:24:56;;;;;;;3.80;0.60;;;;;;;7.78;100.00;101207.03;5391759;26;21050;-76
2024/04/17 08:27:22;;;;;;;4.00;0.70;;;;;;;7.20;100.00;101114.75;5365207;26;20330;-76
2024/04/17 08:29:47;;;;;;;4.13;0.60;;;;;;;7.36;100.00;101136.06;5365230;26;20242;-76
2024/04/17 08:32:12;;;;;;;4.00;0.70;;;;;;;7.30;100.00;101117.25;5366516;26;20313;-76
2024/04/17 08:34:38;;;;;;;7.97;0.73;;;;;;;7.90;100.00;101220.88;5367335;26;20296;-76
2024/04/17 08:37:04;;;;;;;5.33;0.90;;;;;;;7.40;100.00;101140.06;5394174;26;20619;-76
2024/04/17 08:39:29;;;;;;;4.17;0.80;;;;;;;7.64;100.00;101141.00;5362144;26;20715;-76
2024/04/17 08:41:55;;;;;;;4.77;0.90;;;;;;;7.98;100.00;101154.03;5361915;26;20712;-76
2024/04/17 08:44:34;;;;;;;6.20;0.90;;;;;;;8.23;100.00;101192.16;5358928;26;20583;-76
2024/04/17 08:47:02;;;;;;;4.60;0.70;;;;;;;7.78;100.00;101073.53;5366140;26;20871;-76
2024/04/17 08:49:32;;;;;;;6.97;1.00;;;;;;;7.92;100.00;101086.13;5367194;26;21002;-76
2024/04/17 08:51:59;;;;;;;7.13;1.57;;;;;;;8.37;100.00;101121.94;5364166;26;20865;-76
2024/04/17 08:54:25;;;;;;;8.13;1.00;;;;;;;8.66;100.00;101144.47;5365554;26;20530;-76
2024/04/17 08:56:50;;;;;;;8.40;1.47;;;;;;;8.05;100.00;101031.31;5365374;26;20543;-76
2024/04/17 08:59:16;;;;;;;5.37;1.03;;;;;;;8.78;100.00;101158.25;5362259;26;20488;-76
2024/04/17 09:01:42;;;;;;;8.90;1.57;;;;;;;8.55;100.00;101104.78;5362207;26;21038;-76
2024/04/17 09:04:07;;;;;;;8.07;1.20;;;;;;;8.02;100.00;101010.28;5360738;26;20298;-76
2024/04/17 09:06:34;;;;;;;8.30;1.23;;;;;;;8.29;100.00;101008.91;5363662;26;20292;-76
2024/04/17 09:09:01;;;;;;;10.07;1.30;;;;;;;8.82;100.00;101077.50;5365820;26;20936;-76
2024/04/17 09:11:29;;;;;;;7.80;1.27;;;;;;;8.26;100.00;100980.69;5363865;26;21894;-76
2024/04/17 09:13:55;;;;;;;6.30;1.10;;;;;;;8.36;100.00;100985.78;5360348;26;21126;-76
2024/04/17 09:16:21;;;;;;;6.50;1.10;;;;;;;8.66;100.00;101024.16;5365339;26;20587;-76
2024/04/17 09:18:48;;;;;;;11.07;1.40;;;;;;;8.45;100.00;100986.59;5366803;26;20246;-76
2024/04/17 09:21:14;;;;;;;6.87;1.37;;;;;;;8.22;100.00;100938.50;5360604;26;20282;-76
2024/04/17 09:23:39;;;;;;;6.60;1.10;;;;;;;8.41;100.00;100947.84;5361514;26;20596;-76
2024/04/17 09:26:15;;;;;;;5.30;1.23;;;;;;;8.56;100.00;100954.03;5364652;26;20498;-76
2024/04/17 09:28:40;;;;;;;10.90;1.13;;;;;;;9.08;100.00;101021.88;5362235;26;20249;-75
2024/04/17 09:31:06;;;;;;;9.43;1.43;;;;;;;8.38;100.00;100901.75;5361364;26;20536;-76
2024/04/17 09:33:32;;;;;;;9.60;1.13;;;;;;;9.39;100.00;101035.88;5362663;26;20242;-76
2024/04/17 09:36:01;;;;;;;7.97;1.53;;;;;;;9.14;100.00;100936.34;5392730;26;20242;-76
2024/04/17 09:38:27;;;;;;;10.93;1.57;;;;;;;9.30;100.00;100982.66;5364720;26;21020;-75
2024/04/17 09:40:52;;;;;;;8.93;1.20;;;;;;;9.41;100.00;101020.47;5363671;26;20528;-75
2024/04/17 09:43:26;;;;;;;9.33;1.40;;;;;;;9.04;100.00;100933.13;5363234;26;20735;-75
2024/04/17 09:46:05;;;;;;;9.13;1.60;;;;;;;8.99;100.00;100962.28;5364266;26;20230;-76
2024/04/17 09:48:35;;;;;;;9.70;1.90;;;;;;;9.14;100.00;100979.16;5365276;26;20468;-75
2024/04/17 09:51:02;;;;;;;9.07;1.30;;;;;;;9.46;100.00;101046.72;5364180;26;20482;-76
2024/04/17 09:53:33;;;;;;;6.23;1.27;;;;;;;9.32;100.00;101023.47;5365813;26;20870;-76
2024/04/17 09:55:59;;;;;;;8.07;1.20;;;;;;;9.54;100.00;101017.13;5361706;26;20536;-75
2024/04/17 09:58:32;;;;;;;11.00;1.80;;;;;;;9.09;100.00;100946.78;5389225;26;20482;-75
2024/04/17 10:01:07;;;;;;;11.63;1.40;;;;;;;9.40;100.00;100959.06;5390290;26;21056;-75
2024/04/17 10:03:34;;;;;;;7.37;1.20;;;;;;;9.44;100.00;100947.00;5366079;26;20476;-75
2024/04/17 10:06:00;;;;;;;8.23;1.50;;;;;;;9.13;100.00;100917.78;5375161;26;20538;-75
2024/04/17 10:08:30;;;;;;;8.50;1.20;;;;;;;9.90;100.00;101024.34;5362226;26;20476;-76
2024/04/17 10:10:56;;;;;;;9.00;1.47;;;;;;;9.74;100.00;100986.03;5388688;26;20520;-75
2024/04/17 10:13:25;;;;;;;7.50;1.50;;;;;;;9.79;100.00;100992.69;5370870;26;21003;-75
2024/04/17 10:15:52;;;;;;;7.93;1.40;;;;;;;10.11;100.00;100997.56;5377397;26;20699;-75
2024/04/17 10:18:18;;;;;;;6.60;1.30;;;;;;;9.93;100.00;100968.53;5366556;26;20462;-75
2024/04/17 10:20:43;;;;;;;7.10;1.63;;;;;;;9.64;100.00;100918.56;5367853;26;20532;-75
2024/04/17 10:23:10;;;;;;;7.40;1.63;;;;;;;9.64;100.00;100913.22;5364124;26;21048;-75
2024/04/17 10:25:54;;;;;;;9.33;1.50;;;;;;;10.01;100.00;100978.31;5360865;26;20330;-75
2024/04/17 10:28:21;;;;;;;11.73;2.10;;;;;;;9.60;100.00;100885.16;5362612;26;20467;-75
2024/04/17 10:30:48;;;;;;;10.00;1.90;;;;;;;9.65;100.00;100976.47;5361583;26;20468;-76
2024/04/17 10:33:24;;;;;;;14.83;1.90;;;;;;;9.20;100.00;100935.59;5352592;26;20590;-75
2024/04/17 10:35:52;;;;;;;7.73;1.50;;;;;;;9.70;100.00;101000.03;5363834;26;20484;-75
2024/04/17 10:38:18;;;;;;;6.47;1.10;;;;;;;9.00;100.00;100951.41;5359025;26;20854;-76
2024/04/17 10:40:45;;;;;;;11.63;1.87;;;;;;;9.17;100.00;101000.22;5364027;26;20515;-75
2024/04/17 10:43:12;;;;;;;12.70;1.70;;;;;;;8.71;100.00;100943.38;5389240;26;20313;-75
2024/04/17 10:45:44;;;;;;;6.33;1.30;;;;;;;8.87;100.00;100945.03;5367288;26;20911;-75
2024/04/17 10:48:16;;;;;;;13.30;1.87;;;;;;;8.76;100.00;100930.28;5368792;26;20807;-75
2024/04/17 10:50:42;;;;;;;10.77;1.47;;;;;;;9.47;100.00;100989.47;5366181;26;20464;-75
2024/04/17 10:53:09;;;;;;;8.13;1.30;;;;;;;9.69;100.00;101031.34;5390679;26;21020;-75
2024/04/17 10:55:35;;;;;;;8.43;1.57;;;;;;;9.57;100.00;101015.91;5368560;26;21019;-75
2024/04/17 10:58:02;;;;;;;6.70;1.33;;;;;;;9.48;100.00;100949.09;5364249;26;20469;-74
2024/04/17 11:00:27;;;;;;;10.23;1.70;;;;;;;9.92;100.00;101004.38;5361523;26;20298;-75
2024/04/17 11:02:53;;;;;;;9.90;1.60;;;;;;;10.04;100.00;101010.06;5389670;26;20559;-75
2024/04/17 11:05:18;;;;;;;14.60;1.57;;;;;;;9.81;100.00;100966.56;5363326;26;20246;-75
2024/04/17 11:07:44;;;;;;;8.00;1.50;;;;;;;9.45;100.00;100944.09;5361446;26;20284;-75
2024/04/17 11:10:11;;;;;;;8.60;1.17;;;;;;;9.86;100.00;100996.25;5360478;26;20246;-75
2024/04/17 11:12:36;;;;;;;7.57;1.53;;;;;;;9.91;100.00;100962.53;5363165;26;20250;-75
2024/04/17 11:15:02;;;;;;;8.43;1.50;;;;;;;9.69;100.00;100929.56;5355683;26;20520;-75
2024/04/17 11:17:28;;;;;;;6.37;1.10;;;;;;;10.50;100.00;101033.84;5361208;26;20346;-75
2024/04/17 11:19:53;;;;;;;7.10;1.57;;;;;;;10.08;100.00;100927.44;5364238;26;20289;-75